This is the latest recevied weather packets stored in our database for station/object N8QQQ. If no packets are shown the sender has not sent any weather packets the latest 10 day(s).
| Time | Temp. | Humidity | Pressure | Rain* | Wind** | Luminosity | Snow |
|---|---|---|---|---|---|---|---|
| 1777744772 | 10° C | 33% | 1014.2 hPa | 0 mm | - | 130 W/m² | - |
| 1777744466 | 10° C | 33% | 1014.4 hPa | 0 mm | - | 165 W/m² | - |
| 1777744163 | 10.56° C | 32% | 1014.4 hPa | 0 mm | - | 148 W/m² | - |
| 1777743860 | 10.56° C | 32% | 1014.3 hPa | 0 mm | - | 197 W/m² | - |
| 1777743557 | 10.56° C | 32% | 1014.6 hPa | 0 mm | - | 585 W/m² | - |
| 1777743254 | 8.89° C | 33% | 1014.6 hPa | 0 mm | - | 559 W/m² | - |
| 1777742952 | 10° C | 33% | 1014.7 hPa | 0 mm | - | 185 W/m² | - |
| 1777742649 | 10° C | 33% | 1014.7 hPa | 0 mm | - | 708 W/m² | - |
| 1777742345 | 10° C | 33% | 1015 hPa | 0 mm | - | 693 W/m² | - |
| 1777742041 | 8.89° C | 34% | 1015 hPa | 0 mm | - | 142 W/m² | - |
| 1777741738 | 9.44° C | 32% | 1014.9 hPa | 0 mm | - | 450 W/m² | - |
| 1777741435 | 10° C | 32% | 1015 hPa | 0 mm | - | 837 W/m² | - |
| 1777741130 | 9.44° C | 33% | 1015.1 hPa | 0 mm | - | 710 W/m² | - |
| 1777740828 | 9.44° C | 36% | 1015.3 hPa | 0 mm | - | 535 W/m² | - |
| 1777740524 | 10° C | 33% | 1015.3 hPa | 0 mm | - | 221 W/m² | - |
| 1777740216 | 10° C | 33% | 1015.1 hPa | 0 mm | - | 681 W/m² | - |
| 1777739912 | 8.89° C | 35% | 1015.3 hPa | 0 mm | - | 660 W/m² | - |
| 1777739608 | 8.89° C | 34% | 1015.4 hPa | 0 mm | - | 714 W/m² | - |
| 1777739306 | 8.89° C | 35% | 1015.5 hPa | 0 mm | - | 746 W/m² | - |
| 1777739002 | 8.89° C | 34% | 1015.4 hPa | 0 mm | - | 697 W/m² | - |
| 1777738699 | 9.44° C | 34% | 1015.5 hPa | 0 mm | - | 196 W/m² | - |
| 1777738396 | 8.89° C | 34% | 1015.4 hPa | 0 mm | - | 314 W/m² | - |
| 1777738094 | 8.89° C | 35% | 1015.7 hPa | 0 mm | - | 720 W/m² | - |
| 1777737792 | 9.44° C | 35% | 1015.7 hPa | 0 mm | - | 171 W/m² | - |
| 1777737491 | 8.89° C | 36% | 1015.7 hPa | 0 mm | - | 605 W/m² | - |
* Rain latest hour (hover to see other rain measurements)
** Current wind speed in m/s (hover to see current wind gust speed)